Time;durP1;ratioP1;P1;durP2;ratioP2;P2;SDS_P1;SDS_P2;PMS_P1;PMS_P2;Temp;Humidity;BMP_temperature;BMP_pressure;BME280_temperature;BME280_humidity;BME280_pressure;Samples;Min_cycle;Max_cycle;Signal;HPM_P1;HPM_P2
2019/05/22 00:01:10;;;;;;;4.05;3.65;;;;;;;10.64;100;95068.98;;;;
2019/05/22 00:02:21;;;;;;;3.8;3.3;;;;;;;10.66;100;95074.97;;;;
2019/05/22 00:03:26;;;;;;;3.8;3.3;;;;;;;10.66;100;95074.97;;;;
2019/05/22 00:04:29;;;;;;;3.8;3.3;;;;;;;10.66;100;95074.97;;;;
2019/05/22 00:05:31;;;;;;;3.8;3.3;;;;;;;10.66;100;95074.97;;;;
2019/05/22 00:06:35;;;;;;;3.8;3.3;;;;;;;10.66;100;95074.97;;;;
2019/05/22 00:07:39;;;;;;;3.8;3.3;;;;;;;10.66;100;95074.97;;;;
2019/05/22 00:08:44;;;;;;;3.8;3.3;;;;;;;10.66;100;95074.97;;;;
2019/05/22 00:09:46;;;;;;;3.8;3.3;;;;;;;10.66;100;95074.97;;;;
2019/05/22 00:10:53;;;;;;;3.8;3.3;;;;;;;10.66;100;95074.97;;;;
2019/05/22 00:11:55;;;;;;;4.400001;4;;;;;;;10.61;100;95081.08;;;;
2019/05/22 00:12:58;;;;;;;4.400001;4;;;;;;;10.61;100;95081.08;;;;
2019/05/22 00:13:59;;;;;;;4.400001;4;;;;;;;10.61;100;95081.08;;;;
2019/05/22 00:15:01;;;;;;;4.400001;4;;;;;;;10.61;100;95081.08;;;;
2019/05/22 00:16:02;;;;;;;4.400001;4;;;;;;;10.61;100;95081.08;;;;
2019/05/22 00:17:05;;;;;;;4.400001;4;;;;;;;10.61;100;95081.08;;;;
2019/05/22 00:18:06;;;;;;;4.400001;4;;;;;;;10.61;100;95081.08;;;;
2019/05/22 00:19:08;;;;;;;4.400001;4;;;;;;;10.61;100;95081.08;;;;
2019/05/22 00:20:10;;;;;;;4.400001;4;;;;;;;10.61;100;95081.08;;;;
2019/05/22 00:21:13;;;;;;;4.400001;4;;;;;;;10.61;100;95081.08;;;;
2019/05/22 00:22:27;;;;;;;4.400001;4;;;;;;;10.61;100;95081.08;;;;
2019/05/22 00:23:29;;;;;;;3.9;3.6;;;;;;;10.63;100;95075.45;;;;
2019/05/22 00:24:30;;;;;;;3.9;3.6;;;;;;;10.63;100;95075.45;;;;
2019/05/22 00:25:35;;;;;;;3.9;3.6;;;;;;;10.63;100;95075.45;;;;
2019/05/22 00:26:38;;;;;;;3.9;3.6;;;;;;;10.63;100;95075.45;;;;
2019/05/22 00:27:40;;;;;;;3.9;3.6;;;;;;;10.63;100;95075.45;;;;
2019/05/22 00:28:43;;;;;;;3.9;3.6;;;;;;;10.63;100;95075.45;;;;
2019/05/22 00:29:45;;;;;;;3.9;3.6;;;;;;;10.63;100;95075.45;;;;
2019/05/22 00:30:48;;;;;;;3.9;3.6;;;;;;;10.63;100;95075.45;;;;
2019/05/22 00:31:49;;;;;;;3.9;3.6;;;;;;;10.63;100;95075.45;;;;
2019/05/22 00:32:50;;;;;;;3.9;3.6;;;;;;;10.63;100;95075.45;;;;
2019/05/22 00:33:52;;;;;;;4;3.6;;;;;;;10.58;100;95089.67;;;;
2019/05/22 00:34:54;;;;;;;4;3.6;;;;;;;10.58;100;95089.67;;;;
2019/05/22 00:35:59;;;;;;;4;3.6;;;;;;;10.58;100;95089.67;;;;
2019/05/22 00:37:01;;;;;;;4;3.6;;;;;;;10.58;100;95089.67;;;;
2019/05/22 00:38:02;;;;;;;4;3.6;;;;;;;10.58;100;95089.67;;;;
2019/05/22 00:39:04;;;;;;;4;3.6;;;;;;;10.58;100;95089.67;;;;
2019/05/22 00:40:07;;;;;;;4;3.6;;;;;;;10.58;100;95089.67;;;;
2019/05/22 00:41:10;;;;;;;4;3.6;;;;;;;10.58;100;95089.67;;;;
2019/05/22 00:42:13;;;;;;;4;3.6;;;;;;;10.58;100;95089.67;;;;
2019/05/22 00:43:17;;;;;;;4;3.6;;;;;;;10.58;100;95089.67;;;;
2019/05/22 00:44:18;;;;;;;3.75;3.45;;;;;;;10.61;100;95084.33;;;;
2019/05/22 00:45:23;;;;;;;3.75;3.45;;;;;;;10.61;100;95084.33;;;;
2019/05/22 00:46:24;;;;;;;3.75;3.45;;;;;;;10.61;100;95084.33;;;;
2019/05/22 00:47:25;;;;;;;3.75;3.45;;;;;;;10.61;100;95084.33;;;;
2019/05/22 00:48:31;;;;;;;3.75;3.45;;;;;;;10.61;100;95084.33;;;;
2019/05/22 00:49:36;;;;;;;3.75;3.45;;;;;;;10.61;100;95084.33;;;;
2019/05/22 00:50:50;;;;;;;3.75;3.45;;;;;;;10.61;100;95084.33;;;;
2019/05/22 00:53:00;;;;;;;3.75;3.45;;;;;;;10.61;100;95084.33;;;;
2019/05/22 00:59:14;;;;;;;3.3;3;;;;;;;10.56;100;95098.12;;;;
2019/05/22 01:00:21;;;;;;;3.3;3;;;;;;;10.56;100;95098.12;;;;
2019/05/22 01:01:32;;;;;;;3.3;3;;;;;;;10.56;100;95098.12;;;;
2019/05/22 01:02:36;;;;;;;3.3;3;;;;;;;10.56;100;95098.12;;;;
2019/05/22 01:03:39;;;;;;;3.3;3;;;;;;;10.56;100;95098.12;;;;
2019/05/22 01:04:40;;;;;;;3.3;3;;;;;;;10.56;100;95098.12;;;;
2019/05/22 01:05:41;;;;;;;2.900001;2.6;;;;;;;10.62;100;95099.03;;;;
2019/05/22 01:06:43;;;;;;;2.900001;2.6;;;;;;;10.62;100;95099.03;;;;
2019/05/22 01:07:46;;;;;;;2.900001;2.6;;;;;;;10.62;100;95099.03;;;;
2019/05/22 01:08:51;;;;;;;2.900001;2.6;;;;;;;10.62;100;95099.03;;;;
2019/05/22 01:09:54;;;;;;;2.900001;2.6;;;;;;;10.62;100;95099.03;;;;
2019/05/22 01:10:56;;;;;;;2.900001;2.6;;;;;;;10.62;100;95099.03;;;;
2019/05/22 01:11:59;;;;;;;2.900001;2.6;;;;;;;10.62;100;95099.03;;;;
2019/05/22 01:13:00;;;;;;;2.900001;2.6;;;;;;;10.62;100;95099.03;;;;
2019/05/22 01:14:04;;;;;;;2.900001;2.6;;;;;;;10.62;100;95099.03;;;;
2019/05/22 01:15:07;;;;;;;2.900001;2.6;;;;;;;10.62;100;95099.03;;;;
2019/05/22 01:16:09;;;;;;;3.4;3.1;;;;;;;10.55;100;95100.54;;;;
2019/05/22 01:17:11;;;;;;;3.4;3.1;;;;;;;10.55;100;95100.54;;;;
2019/05/22 01:18:13;;;;;;;3.4;3.1;;;;;;;10.55;100;95100.54;;;;
2019/05/22 01:19:14;;;;;;;3.4;3.1;;;;;;;10.55;100;95100.54;;;;
2019/05/22 01:20:16;;;;;;;3.4;3.1;;;;;;;10.55;100;95100.54;;;;
2019/05/22 01:21:24;;;;;;;3.4;3.1;;;;;;;10.55;100;95100.54;;;;
2019/05/22 01:22:26;;;;;;;3.4;3.1;;;;;;;10.55;100;95100.54;;;;
2019/05/22 01:23:29;;;;;;;3.4;3.1;;;;;;;10.55;100;95100.54;;;;
2019/05/22 01:24:31;;;;;;;3.4;3.1;;;;;;;10.55;100;95100.54;;;;
2019/05/22 01:25:34;;;;;;;3.4;3.1;;;;;;;10.55;100;95100.54;;;;
2019/05/22 01:26:37;;;;;;;4;3.6;;;;;;;10.57;100;95110.57;;;;
2019/05/22 01:27:41;;;;;;;4;3.6;;;;;;;10.57;100;95110.57;;;;
2019/05/22 01:28:43;;;;;;;4;3.6;;;;;;;10.57;100;95110.57;;;;
2019/05/22 01:29:45;;;;;;;4;3.6;;;;;;;10.57;100;95110.57;;;;
2019/05/22 01:30:50;;;;;;;4;3.6;;;;;;;10.57;100;95110.57;;;;
2019/05/22 01:31:56;;;;;;;4;3.6;;;;;;;10.57;100;95110.57;;;;
2019/05/22 01:32:58;;;;;;;4;3.6;;;;;;;10.57;100;95110.57;;;;
2019/05/22 01:34:06;;;;;;;4;3.6;;;;;;;10.57;100;95110.57;;;;
2019/05/22 01:35:09;;;;;;;4;3.6;;;;;;;10.57;100;95110.57;;;;
2019/05/22 01:36:43;;;;;;;4;3.6;;;;;;;10.57;100;95110.57;;;;
2019/05/22 01:37:44;;;;;;;4.6;4.199999;;;;;;;10.53;100;95112.1;;;;
2019/05/22 01:38:45;;;;;;;4.6;4.199999;;;;;;;10.53;100;95112.1;;;;
2019/05/22 01:39:52;;;;;;;4.6;4.199999;;;;;;;10.53;100;95112.1;;;;
2019/05/22 01:40:57;;;;;;;4.6;4.199999;;;;;;;10.53;100;95112.1;;;;
2019/05/22 01:42:00;;;;;;;4.6;4.199999;;;;;;;10.53;100;95112.1;;;;
2019/05/22 01:43:02;;;;;;;4.6;4.199999;;;;;;;10.53;100;95112.1;;;;
2019/05/22 01:44:05;;;;;;;4.6;4.199999;;;;;;;10.53;100;95112.1;;;;
2019/05/22 01:45:08;;;;;;;4.6;4.199999;;;;;;;10.53;100;95112.1;;;;
2019/05/22 01:46:11;;;;;;;4.6;4.199999;;;;;;;10.53;100;95112.1;;;;
2019/05/22 01:47:16;;;;;;;4.6;4.199999;;;;;;;10.53;100;95112.1;;;;
2019/05/22 01:48:30;;;;;;;6.05;5.449999;;;;;;;10.54;100;95107.39;;;;
2019/05/22 01:49:33;;;;;;;6.05;5.449999;;;;;;;10.54;100;95107.39;;;;
2019/05/22 01:50:35;;;;;;;6.05;5.449999;;;;;;;10.54;100;95107.39;;;;
2019/05/22 01:51:41;;;;;;;6.05;5.449999;;;;;;;10.54;100;95107.39;;;;
2019/05/22 01:52:42;;;;;;;6.05;5.449999;;;;;;;10.54;100;95107.39;;;;
2019/05/22 01:53:46;;;;;;;6.05;5.449999;;;;;;;10.54;100;95107.39;;;;
2019/05/22 01:54:47;;;;;;;6.05;5.449999;;;;;;;10.54;100;95107.39;;;;
2019/05/22 01:55:54;;;;;;;6.05;5.449999;;;;;;;10.54;100;95107.39;;;;
2019/05/22 02:00:05;;;;;;;7.05;6.349999;;;;;;;10.5;100;95116.23;;;;
2019/05/22 02:01:13;;;;;;;7.05;6.349999;;;;;;;10.5;100;95116.23;;;;
2019/05/22 02:02:14;;;;;;;7.05;6.349999;;;;;;;10.5;100;95116.23;;;;
2019/05/22 02:03:16;;;;;;;7.05;6.349999;;;;;;;10.5;100;95116.23;;;;
2019/05/22 02:04:18;;;;;;;7.05;6.349999;;;;;;;10.5;100;95116.23;;;;
2019/05/22 02:05:19;;;;;;;7.05;6.349999;;;;;;;10.5;100;95116.23;;;;
2019/05/22 02:06:20;;;;;;;7.05;6.349999;;;;;;;10.5;100;95116.23;;;;
2019/05/22 02:07:25;;;;;;;7.05;6.349999;;;;;;;10.5;100;95116.23;;;;
2019/05/22 02:08:27;;;;;;;7.05;6.349999;;;;;;;10.5;100;95116.23;;;;
2019/05/22 02:09:28;;;;;;;9.549999;8.45;;;;;;;10.52;100;95123.97;;;;
2019/05/22 02:10:32;;;;;;;9.549999;8.45;;;;;;;10.52;100;95123.97;;;;
2019/05/22 02:11:34;;;;;;;9.549999;8.45;;;;;;;10.52;100;95123.97;;;;
2019/05/22 02:12:36;;;;;;;9.549999;8.45;;;;;;;10.52;100;95123.97;;;;
2019/05/22 02:13:47;;;;;;;9.549999;8.45;;;;;;;10.52;100;95123.97;;;;
2019/05/22 02:14:50;;;;;;;9.549999;8.45;;;;;;;10.52;100;95123.97;;;;
2019/05/22 02:15:52;;;;;;;9.549999;8.45;;;;;;;10.52;100;95123.97;;;;
2019/05/22 02:16:54;;;;;;;9.549999;8.45;;;;;;;10.52;100;95123.97;;;;
2019/05/22 02:17:56;;;;;;;9.549999;8.45;;;;;;;10.52;100;95123.97;;;;
2019/05/22 02:18:58;;;;;;;9.549999;8.45;;;;;;;10.52;100;95123.97;;;;
2019/05/22 02:19:59;;;;;;;11.8;9.400001;;;;;;;10.47;100;95124.67;;;;
2019/05/22 02:21:00;;;;;;;11.8;9.400001;;;;;;;10.47;100;95124.67;;;;
2019/05/22 02:22:03;;;;;;;11.8;9.400001;;;;;;;10.47;100;95124.67;;;;
2019/05/22 02:23:05;;;;;;;11.8;9.400001;;;;;;;10.47;100;95124.67;;;;
2019/05/22 02:24:08;;;;;;;11.8;9.400001;;;;;;;10.47;100;95124.67;;;;
2019/05/22 02:25:09;;;;;;;11.8;9.400001;;;;;;;10.47;100;95124.67;;;;
2019/05/22 02:26:12;;;;;;;11.8;9.400001;;;;;;;10.47;100;95124.67;;;;
2019/05/22 02:27:13;;;;;;;11.8;9.400001;;;;;;;10.47;100;95124.67;;;;
2019/05/22 02:28:16;;;;;;;11.8;9.400001;;;;;;;10.47;100;95124.67;;;;
2019/05/22 02:29:20;;;;;;;11.8;9.400001;;;;;;;10.47;100;95124.67;;;;
2019/05/22 02:30:22;;;;;;;11.55;9.149999;;;;;;;10.51;100;95127.72;;;;
2019/05/22 02:31:25;;;;;;;11.55;9.149999;;;;;;;10.51;100;95127.72;;;;
2019/05/22 02:32:26;;;;;;;11.55;9.149999;;;;;;;10.51;100;95127.72;;;;
2019/05/22 02:33:29;;;;;;;11.55;9.149999;;;;;;;10.51;100;95127.72;;;;
2019/05/22 02:34:32;;;;;;;11.55;9.149999;;;;;;;10.51;100;95127.72;;;;
2019/05/22 02:35:35;;;;;;;11.55;9.149999;;;;;;;10.51;100;95127.72;;;;
2019/05/22 02:36:37;;;;;;;11.55;9.149999;;;;;;;10.51;100;95127.72;;;;
2019/05/22 02:37:38;;;;;;;11.55;9.149999;;;;;;;10.51;100;95127.72;;;;
2019/05/22 02:38:42;;;;;;;11.55;9.149999;;;;;;;10.51;100;95127.72;;;;
2019/05/22 02:39:44;;;;;;;11.55;9.149999;;;;;;;10.51;100;95127.72;;;;
2019/05/22 02:40:47;;;;;;;14.2;10.85;;;;;;;10.48;100;95130.49;;;;
2019/05/22 02:41:49;;;;;;;14.2;10.85;;;;;;;10.48;100;95130.49;;;;
2019/05/22 02:42:52;;;;;;;14.2;10.85;;;;;;;10.48;100;95130.49;;;;
2019/05/22 02:43:54;;;;;;;14.2;10.85;;;;;;;10.48;100;95130.49;;;;
2019/05/22 02:44:55;;;;;;;14.2;10.85;;;;;;;10.48;100;95130.49;;;;
2019/05/22 02:45:58;;;;;;;14.2;10.85;;;;;;;10.48;100;95130.49;;;;
2019/05/22 02:46:59;;;;;;;14.2;10.85;;;;;;;10.48;100;95130.49;;;;
2019/05/22 02:48:01;;;;;;;14.2;10.85;;;;;;;10.48;100;95130.49;;;;
2019/05/22 02:49:02;;;;;;;14.2;10.85;;;;;;;10.48;100;95130.49;;;;
2019/05/22 02:50:05;;;;;;;14.2;10.85;;;;;;;10.48;100;95130.49;;;;
2019/05/22 02:51:08;;;;;;;19.65;13.35;;;;;;;10.51;100;95136.22;;;;
2019/05/22 02:52:10;;;;;;;19.65;13.35;;;;;;;10.51;100;95136.22;;;;
2019/05/22 02:53:11;;;;;;;19.65;13.35;;;;;;;10.51;100;95136.22;;;;
2019/05/22 02:54:12;;;;;;;19.65;13.35;;;;;;;10.51;100;95136.22;;;;
2019/05/22 02:55:13;;;;;;;19.65;13.35;;;;;;;10.51;100;95136.22;;;;
2019/05/22 02:56:15;;;;;;;19.65;13.35;;;;;;;10.51;100;95136.22;;;;
2019/05/22 02:57:16;;;;;;;19.65;13.35;;;;;;;10.51;100;95136.22;;;;
2019/05/22 02:58:17;;;;;;;19.65;13.35;;;;;;;10.51;100;95136.22;;;;
2019/05/22 02:59:18;;;;;;;19.65;13.35;;;;;;;10.51;100;95136.22;;;;
2019/05/22 03:00:21;;;;;;;19.65;13.35;;;;;;;10.51;100;95136.22;;;;
2019/05/22 03:01:22;;;;;;;19.65;13.35;;;;;;;10.51;100;95136.22;;;;
2019/05/22 03:02:24;;;;;;;23.95;15.15;;;;;;;10.46;100;95144.64;;;;
2019/05/22 03:03:26;;;;;;;23.95;15.15;;;;;;;10.46;100;95144.64;;;;
2019/05/22 03:04:30;;;;;;;23.95;15.15;;;;;;;10.46;100;95144.64;;;;
2019/05/22 03:06:05;;;;;;;23.95;15.15;;;;;;;10.46;100;95144.64;;;;
2019/05/22 03:07:08;;;;;;;23.95;15.15;;;;;;;10.46;100;95144.64;;;;
2019/05/22 03:08:10;;;;;;;23.95;15.15;;;;;;;10.46;100;95144.64;;;;
2019/05/22 03:09:26;;;;;;;23.95;15.15;;;;;;;10.46;100;95144.64;;;;
2019/05/22 03:10:29;;;;;;;23.95;15.15;;;;;;;10.46;100;95144.64;;;;
2019/05/22 03:11:30;;;;;;;23.95;15.15;;;;;;;10.46;100;95144.64;;;;
2019/05/22 03:12:35;;;;;;;27.25;16.65;;;;;;;10.49;100;95153.61;;;;
2019/05/22 03:13:36;;;;;;;27.25;16.65;;;;;;;10.49;100;95153.61;;;;
2019/05/22 03:15:01;;;;;;;27.25;16.65;;;;;;;10.49;100;95153.61;;;;
2019/05/22 03:16:04;;;;;;;27.25;16.65;;;;;;;10.49;100;95153.61;;;;
2019/05/22 03:17:07;;;;;;;27.25;16.65;;;;;;;10.49;100;95153.61;;;;
2019/05/22 03:18:29;;;;;;;27.25;16.65;;;;;;;10.49;100;95153.61;;;;
2019/05/22 03:19:30;;;;;;;27.25;16.65;;;;;;;10.49;100;95153.61;;;;
2019/05/22 03:20:36;;;;;;;27.25;16.65;;;;;;;10.49;100;95153.61;;;;
2019/05/22 03:21:37;;;;;;;27.25;16.65;;;;;;;10.49;100;95153.61;;;;
2019/05/22 03:22:39;;;;;;;27.25;16.65;;;;;;;10.49;100;95153.61;;;;
2019/05/22 03:24:07;;;;;;;34.10001;20.1;;;;;;;10.45;100;95160.11;;;;
2019/05/22 03:25:10;;;;;;;34.10001;20.1;;;;;;;10.45;100;95160.11;;;;
2019/05/22 03:26:12;;;;;;;34.10001;20.1;;;;;;;10.45;100;95160.11;;;;
2019/05/22 03:27:13;;;;;;;34.10001;20.1;;;;;;;10.45;100;95160.11;;;;
2019/05/22 03:28:16;;;;;;;34.10001;20.1;;;;;;;10.45;100;95160.11;;;;
2019/05/22 03:29:17;;;;;;;34.10001;20.1;;;;;;;10.45;100;95160.11;;;;
2019/05/22 03:30:36;;;;;;;34.10001;20.1;;;;;;;10.45;100;95160.11;;;;
2019/05/22 03:31:38;;;;;;;34.10001;20.1;;;;;;;10.45;100;95160.11;;;;
2019/05/22 03:32:42;;;;;;;34.10001;20.1;;;;;;;10.45;100;95160.11;;;;
2019/05/22 03:33:43;;;;;;;27.1;16.5;;;;;;;10.49;100;95165.34;;;;
2019/05/22 03:34:44;;;;;;;27.1;16.5;;;;;;;10.49;100;95165.34;;;;
2019/05/22 03:35:48;;;;;;;27.1;16.5;;;;;;;10.49;100;95165.34;;;;
2019/05/22 03:37:05;;;;;;;27.1;16.5;;;;;;;10.49;100;95165.34;;;;
2019/05/22 03:38:07;;;;;;;27.1;16.5;;;;;;;10.49;100;95165.34;;;;
2019/05/22 03:39:09;;;;;;;27.1;16.5;;;;;;;10.49;100;95165.34;;;;
2019/05/22 03:40:11;;;;;;;27.1;16.5;;;;;;;10.49;100;95165.34;;;;
2019/05/22 03:41:13;;;;;;;27.1;16.5;;;;;;;10.49;100;95165.34;;;;
2019/05/22 03:42:15;;;;;;;27.1;16.5;;;;;;;10.49;100;95165.34;;;;
2019/05/22 03:43:17;;;;;;;27.1;16.5;;;;;;;10.49;100;95165.34;;;;
2019/05/22 03:44:20;;;;;;;24.75;15.6;;;;;;;10.46;100;95168.11;;;;
2019/05/22 03:45:22;;;;;;;24.75;15.6;;;;;;;10.46;100;95168.11;;;;
2019/05/22 03:46:24;;;;;;;24.75;15.6;;;;;;;10.46;100;95168.11;;;;
2019/05/22 03:47:29;;;;;;;24.75;15.6;;;;;;;10.46;100;95168.11;;;;
2019/05/22 03:48:30;;;;;;;24.75;15.6;;;;;;;10.46;100;95168.11;;;;
2019/05/22 03:49:33;;;;;;;24.75;15.6;;;;;;;10.46;100;95168.11;;;;
2019/05/22 03:50:34;;;;;;;24.75;15.6;;;;;;;10.46;100;95168.11;;;;
2019/05/22 03:51:36;;;;;;;24.75;15.6;;;;;;;10.46;100;95168.11;;;;
2019/05/22 03:52:37;;;;;;;24.75;15.6;;;;;;;10.46;100;95168.11;;;;
2019/05/22 03:53:38;;;;;;;24.75;15.6;;;;;;;10.46;100;95168.11;;;;
2019/05/22 03:54:40;;;;;;;29.65;17.35;;;;;;;10.5;100;95177.37;;;;
2019/05/22 03:55:41;;;;;;;29.65;17.35;;;;;;;10.5;100;95177.37;;;;
2019/05/22 03:56:43;;;;;;;29.65;17.35;;;;;;;10.5;100;95177.37;;;;
2019/05/22 03:57:44;;;;;;;29.65;17.35;;;;;;;10.5;100;95177.37;;;;
2019/05/22 03:58:46;;;;;;;29.65;17.35;;;;;;;10.5;100;95177.37;;;;
2019/05/22 03:59:47;;;;;;;29.65;17.35;;;;;;;10.5;100;95177.37;;;;
2019/05/22 04:00:49;;;;;;;29.65;17.35;;;;;;;10.5;100;95177.37;;;;
2019/05/22 04:01:50;;;;;;;29.65;17.35;;;;;;;10.5;100;95177.37;;;;
2019/05/22 04:02:52;;;;;;;29.65;17.35;;;;;;;10.5;100;95177.37;;;;
2019/05/22 04:03:53;;;;;;;29.65;17.35;;;;;;;10.5;100;95177.37;;;;
2019/05/22 04:04:55;;;;;;;29.65;17.35;;;;;;;10.5;100;95177.37;;;;
2019/05/22 04:05:56;;;;;;;32.05;17.25;;;;;;;10.46;100;95190.53;;;;
2019/05/22 04:06:58;;;;;;;32.05;17.25;;;;;;;10.46;100;95190.53;;;;
2019/05/22 04:08:00;;;;;;;32.05;17.25;;;;;;;10.46;100;95190.53;;;;
2019/05/22 04:09:06;;;;;;;32.05;17.25;;;;;;;10.46;100;95190.53;;;;
2019/05/22 04:10:20;;;;;;;32.05;17.25;;;;;;;10.46;100;95190.53;;;;
2019/05/22 04:11:21;;;;;;;32.05;17.25;;;;;;;10.46;100;95190.53;;;;
2019/05/22 04:12:33;;;;;;;32.05;17.25;;;;;;;10.46;100;95190.53;;;;
2019/05/22 04:13:34;;;;;;;32.05;17.25;;;;;;;10.46;100;95190.53;;;;
2019/05/22 04:14:38;;;;;;;32.05;17.25;;;;;;;10.46;100;95190.53;;;;
2019/05/22 04:15:40;;;;;;;32.05;17.25;;;;;;;10.46;100;95190.53;;;;
2019/05/22 04:16:41;;;;;;;29.5;17.55;;;;;;;10.51;100;95200.19;;;;
2019/05/22 04:17:43;;;;;;;29.5;17.55;;;;;;;10.51;100;95200.19;;;;
2019/05/22 04:18:44;;;;;;;29.5;17.55;;;;;;;10.51;100;95200.19;;;;
2019/05/22 04:19:46;;;;;;;29.5;17.55;;;;;;;10.51;100;95200.19;;;;
2019/05/22 04:20:47;;;;;;;29.5;17.55;;;;;;;10.51;100;95200.19;;;;
2019/05/22 04:21:49;;;;;;;29.5;17.55;;;;;;;10.51;100;95200.19;;;;
2019/05/22 04:22:55;;;;;;;29.5;17.55;;;;;;;10.51;100;95200.19;;;;
2019/05/22 04:23:56;;;;;;;29.5;17.55;;;;;;;10.51;100;95200.19;;;;
2019/05/22 04:24:57;;;;;;;29.5;17.55;;;;;;;10.51;100;95200.19;;;;
2019/05/22 04:26:00;;;;;;;29.5;17.55;;;;;;;10.51;100;95200.19;;;;
2019/05/22 04:27:04;;;;;;;32.55;18.85;;;;;;;10.48;100;95197.86;;;;
2019/05/22 04:28:05;;;;;;;32.55;18.85;;;;;;;10.48;100;95197.86;;;;
2019/05/22 04:29:06;;;;;;;32.55;18.85;;;;;;;10.48;100;95197.86;;;;
2019/05/22 04:30:09;;;;;;;32.55;18.85;;;;;;;10.48;100;95197.86;;;;
2019/05/22 04:31:10;;;;;;;32.55;18.85;;;;;;;10.48;100;95197.86;;;;
2019/05/22 04:32:17;;;;;;;32.55;18.85;;;;;;;10.48;100;95197.86;;;;
2019/05/22 04:33:18;;;;;;;32.55;18.85;;;;;;;10.48;100;95197.86;;;;
2019/05/22 04:34:19;;;;;;;32.55;18.85;;;;;;;10.48;100;95197.86;;;;
2019/05/22 04:35:20;;;;;;;32.55;18.85;;;;;;;10.48;100;95197.86;;;;
2019/05/22 04:36:23;;;;;;;32.55;18.85;;;;;;;10.48;100;95197.86;;;;
2019/05/22 04:37:25;;;;;;;38.15;20.35;;;;;;;10.54;100;95203.78;;;;
2019/05/22 04:38:27;;;;;;;38.15;20.35;;;;;;;10.54;100;95203.78;;;;
2019/05/22 04:39:28;;;;;;;38.15;20.35;;;;;;;10.54;100;95203.78;;;;
2019/05/22 04:40:29;;;;;;;38.15;20.35;;;;;;;10.54;100;95203.78;;;;
2019/05/22 04:43:55;;;;;;;38.15;20.35;;;;;;;10.54;100;95203.78;;;;
2019/05/22 04:44:57;;;;;;;38.15;20.35;;;;;;;10.54;100;95203.78;;;;
2019/05/22 04:46:07;;;;;;;38.15;20.35;;;;;;;10.54;100;95203.78;;;;
2019/05/22 04:47:09;;;;;;;38.15;20.35;;;;;;;10.54;100;95203.78;;;;
2019/05/22 04:48:10;;;;;;;47.25;23.24999;;;;;;;10.52;100;95211.7;;;;
2019/05/22 04:49:12;;;;;;;47.25;23.24999;;;;;;;10.52;100;95211.7;;;;
2019/05/22 04:50:14;;;;;;;47.25;23.24999;;;;;;;10.52;100;95211.7;;;;
2019/05/22 04:51:15;;;;;;;47.25;23.24999;;;;;;;10.52;100;95211.7;;;;
2019/05/22 04:52:20;;;;;;;47.25;23.24999;;;;;;;10.52;100;95211.7;;;;
2019/05/22 04:53:22;;;;;;;47.25;23.24999;;;;;;;10.52;100;95211.7;;;;
2019/05/22 04:54:24;;;;;;;47.25;23.24999;;;;;;;10.52;100;95211.7;;;;
2019/05/22 04:55:25;;;;;;;47.25;23.24999;;;;;;;10.52;100;95211.7;;;;
2019/05/22 04:56:27;;;;;;;47.25;23.24999;;;;;;;10.52;100;95211.7;;;;
2019/05/22 04:57:28;;;;;;;47.25;23.24999;;;;;;;10.52;100;95211.7;;;;
2019/05/22 04:58:30;;;;;;;49.2;24.7;;;;;;;10.57;100;95222.61;;;;
2019/05/22 04:59:31;;;;;;;49.2;24.7;;;;;;;10.57;100;95222.61;;;;
2019/05/22 05:00:33;;;;;;;49.2;24.7;;;;;;;10.57;100;95222.61;;;;
2019/05/22 05:01:35;;;;;;;49.2;24.7;;;;;;;10.57;100;95222.61;;;;
2019/05/22 05:02:37;;;;;;;49.2;24.7;;;;;;;10.57;100;95222.61;;;;
2019/05/22 05:03:38;;;;;;;49.2;24.7;;;;;;;10.57;100;95222.61;;;;
2019/05/22 05:04:39;;;;;;;49.2;24.7;;;;;;;10.57;100;95222.61;;;;
2019/05/22 05:05:44;;;;;;;49.2;24.7;;;;;;;10.57;100;95222.61;;;;
2019/05/22 05:06:45;;;;;;;49.2;24.7;;;;;;;10.57;100;95222.61;;;;
2019/05/22 05:07:47;;;;;;;49.2;24.7;;;;;;;10.57;100;95222.61;;;;
2019/05/22 05:08:48;;;;;;;48.55;24.2;;;;;;;10.59;100;95220.5;;;;
2019/05/22 05:09:49;;;;;;;48.55;24.2;;;;;;;10.59;100;95220.5;;;;
2019/05/22 05:10:52;;;;;;;48.55;24.2;;;;;;;10.59;100;95220.5;;;;
2019/05/22 05:11:53;;;;;;;48.55;24.2;;;;;;;10.59;100;95220.5;;;;
2019/05/22 05:12:54;;;;;;;48.55;24.2;;;;;;;10.59;100;95220.5;;;;
2019/05/22 05:13:56;;;;;;;48.55;24.2;;;;;;;10.59;100;95220.5;;;;
2019/05/22 05:14:57;;;;;;;48.55;24.2;;;;;;;10.59;100;95220.5;;;;
2019/05/22 05:15:59;;;;;;;48.55;24.2;;;;;;;10.59;100;95220.5;;;;
2019/05/22 05:17:00;;;;;;;48.55;24.2;;;;;;;10.59;100;95220.5;;;;
2019/05/22 05:18:01;;;;;;;48.55;24.2;;;;;;;10.59;100;95220.5;;;;
2019/05/22 05:19:02;;;;;;;48.55;24.2;;;;;;;10.59;100;95220.5;;;;
2019/05/22 05:20:03;;;;;;;40.75;21.55;;;;;;;10.72;100;95223.88;;;;
2019/05/22 05:21:05;;;;;;;40.75;21.55;;;;;;;10.72;100;95223.88;;;;
2019/05/22 05:22:06;;;;;;;40.75;21.55;;;;;;;10.72;100;95223.88;;;;
2019/05/22 05:23:07;;;;;;;40.75;21.55;;;;;;;10.72;100;95223.88;;;;
2019/05/22 05:24:08;;;;;;;40.75;21.55;;;;;;;10.72;100;95223.88;;;;
2019/05/22 05:25:09;;;;;;;40.75;21.55;;;;;;;10.72;100;95223.88;;;;
2019/05/22 05:26:11;;;;;;;40.75;21.55;;;;;;;10.72;100;95223.88;;;;
2019/05/22 05:27:12;;;;;;;40.75;21.55;;;;;;;10.72;100;95223.88;;;;
2019/05/22 05:28:13;;;;;;;40.75;21.55;;;;;;;10.72;100;95223.88;;;;
2019/05/22 05:29:15;;;;;;;40.75;21.55;;;;;;;10.72;100;95223.88;;;;
2019/05/22 05:30:25;;;;;;;38.15;20.35;;;;;;;10.77;100;95233.44;;;;
2019/05/22 05:31:26;;;;;;;38.15;20.35;;;;;;;10.77;100;95233.44;;;;
2019/05/22 05:32:27;;;;;;;38.15;20.35;;;;;;;10.77;100;95233.44;;;;
2019/05/22 05:33:29;;;;;;;38.15;20.35;;;;;;;10.77;100;95233.44;;;;
2019/05/22 05:34:33;;;;;;;38.15;20.35;;;;;;;10.77;100;95233.44;;;;
2019/05/22 05:35:40;;;;;;;38.15;20.35;;;;;;;10.77;100;95233.44;;;;
2019/05/22 05:36:41;;;;;;;38.15;20.35;;;;;;;10.77;100;95233.44;;;;
2019/05/22 05:37:42;;;;;;;38.15;20.35;;;;;;;10.77;100;95233.44;;;;
2019/05/22 05:38:43;;;;;;;38.15;20.35;;;;;;;10.77;100;95233.44;;;;
2019/05/22 05:39:45;;;;;;;38.15;20.35;;;;;;;10.77;100;95233.44;;;;
2019/05/22 05:43:39;;;;;;;43.35001;22.9;;;;;;;10.9;100;95243.98;;;;
2019/05/22 05:44:40;;;;;;;43.35001;22.9;;;;;;;10.9;100;95243.98;;;;
2019/05/22 05:45:41;;;;;;;43.35001;22.9;;;;;;;10.9;100;95243.98;;;;
2019/05/22 05:46:44;;;;;;;43.35001;22.9;;;;;;;10.9;100;95243.98;;;;
2019/05/22 05:47:45;;;;;;;43.35001;22.9;;;;;;;10.9;100;95243.98;;;;
2019/05/22 05:48:46;;;;;;;43.35001;22.9;;;;;;;10.9;100;95243.98;;;;
2019/05/22 05:49:48;;;;;;;43.35001;22.9;;;;;;;10.9;100;95243.98;;;;
2019/05/22 05:50:49;;;;;;;43.35001;22.9;;;;;;;10.9;100;95243.98;;;;
2019/05/22 05:52:22;;;;;;;53.7;27.29999;;;;;;;11;100;95249.06;;;;
2019/05/22 05:53:24;;;;;;;53.7;27.29999;;;;;;;11;100;95249.06;;;;
2019/05/22 05:54:26;;;;;;;53.7;27.29999;;;;;;;11;100;95249.06;;;;
2019/05/22 05:55:29;;;;;;;53.7;27.29999;;;;;;;11;100;95249.06;;;;
2019/05/22 05:57:10;;;;;;;53.7;27.29999;;;;;;;11;100;95249.06;;;;
2019/05/22 05:59:21;;;;;;;53.7;27.29999;;;;;;;11;100;95249.06;;;;
2019/05/22 06:00:32;;;;;;;53.7;27.29999;;;;;;;11;100;95249.06;;;;
2019/05/22 06:01:35;;;;;;;53.7;27.29999;;;;;;;11;100;95249.06;;;;
2019/05/22 06:02:38;;;;;;;64.25;30.7;;;;;;;11.07;100;95260.13;;;;
2019/05/22 06:03:39;;;;;;;64.25;30.7;;;;;;;11.07;100;95260.13;;;;
2019/05/22 06:04:41;;;;;;;64.25;30.7;;;;;;;11.07;100;95260.13;;;;
2019/05/22 06:05:42;;;;;;;64.25;30.7;;;;;;;11.07;100;95260.13;;;;
2019/05/22 06:06:43;;;;;;;64.25;30.7;;;;;;;11.07;100;95260.13;;;;
2019/05/22 06:08:16;;;;;;;64.25;30.7;;;;;;;11.07;100;95260.13;;;;
2019/05/22 06:09:18;;;;;;;64.25;30.7;;;;;;;11.07;100;95260.13;;;;
2019/05/22 06:10:20;;;;;;;64.25;30.7;;;;;;;11.07;100;95260.13;;;;
2019/05/22 06:13:33;;;;;;;66.40001;31.35;;;;;;;11.1;100;95262.9;;;;
2019/05/22 06:14:35;;;;;;;66.40001;31.35;;;;;;;11.1;100;95262.9;;;;
2019/05/22 06:15:36;;;;;;;66.40001;31.35;;;;;;;11.1;100;95262.9;;;;
2019/05/22 06:20:21;;;;;;;66.40001;31.35;;;;;;;11.1;100;95262.9;;;;
2019/05/22 06:21:22;;;;;;;66.40001;31.35;;;;;;;11.1;100;95262.9;;;;
2019/05/22 06:22:24;;;;;;;66.40001;31.35;;;;;;;11.1;100;95262.9;;;;
2019/05/22 06:23:26;;;;;;;68.45;32.25;;;;;;;11.17;100;95281.53;;;;
2019/05/22 06:26:52;;;;;;;68.45;32.25;;;;;;;11.17;100;95281.53;;;;
2019/05/22 06:28:00;;;;;;;68.45;32.25;;;;;;;11.17;100;95281.53;;;;
2019/05/22 06:29:05;;;;;;;68.45;32.25;;;;;;;11.17;100;95281.53;;;;
2019/05/22 06:30:10;;;;;;;68.45;32.25;;;;;;;11.17;100;95281.53;;;;
2019/05/22 06:31:15;;;;;;;68.45;32.25;;;;;;;11.17;100;95281.53;;;;
2019/05/22 06:32:37;;;;;;;68.45;32.25;;;;;;;11.17;100;95281.53;;;;
2019/05/22 06:34:28;;;;;;;59.59999;30.45;;;;;;;11.24;100;95289;;;;
2019/05/22 06:35:30;;;;;;;59.59999;30.45;;;;;;;11.24;100;95289;;;;
2019/05/22 06:36:32;;;;;;;59.59999;30.45;;;;;;;11.24;100;95289;;;;
2019/05/22 06:37:34;;;;;;;59.59999;30.45;;;;;;;11.24;100;95289;;;;
2019/05/22 06:38:43;;;;;;;59.59999;30.45;;;;;;;11.24;100;95289;;;;
2019/05/22 06:39:54;;;;;;;59.59999;30.45;;;;;;;11.24;100;95289;;;;
2019/05/22 06:40:55;;;;;;;59.59999;30.45;;;;;;;11.24;100;95289;;;;
2019/05/22 06:41:56;;;;;;;59.59999;30.45;;;;;;;11.24;100;95289;;;;
2019/05/22 06:42:58;;;;;;;59.59999;30.45;;;;;;;11.24;100;95289;;;;
2019/05/22 06:45:27;;;;;;;59.59999;30.45;;;;;;;11.24;100;95289;;;;
2019/05/22 06:46:28;;;;;;;59.59999;30.45;;;;;;;11.24;100;95289;;;;